Time;durP1;ratioP1;P1;durP2;ratioP2;P2;SDS_P1;SDS_P2;PMS_P1;PMS_P2;Temp;Humidity;BMP_temperature;BMP_pressure;BME280_temperature;BME280_humidity;BME280_pressure;Samples;Min_cycle;Max_cycle;Signal;HPM_P1;HPM_P2
2021/07/28 00:01:56;;;;;;;9.30;5.55;;;;;;;19.02;94.74;98469.00;4971824;28;20149;-58
2021/07/28 00:04:21;;;;;;;8.93;5.05;;;;;;;19.28;95.05;98508.75;4969582;28;20035;-59
2021/07/28 00:06:47;;;;;;;9.38;5.05;;;;;;;19.20;94.44;98492.13;4977477;28;20037;-58
2021/07/28 00:09:12;;;;;;;8.02;4.72;;;;;;;19.06;94.31;98453.59;4981925;28;20895;-58
2021/07/28 00:11:37;;;;;;;8.70;5.22;;;;;;;19.25;94.04;98488.84;4980077;28;20023;-58
2021/07/28 00:14:03;;;;;;;8.95;4.97;;;;;;;19.20;94.12;98478.94;4975138;28;20035;-59
2021/07/28 00:16:28;;;;;;;9.02;4.85;;;;;;;19.05;93.92;98457.25;4976609;28;20041;-56
2021/07/28 00:19:17;;;;;;;7.53;4.70;;;;;;;19.25;94.09;98467.78;4974715;28;20038;-56
2021/07/28 00:24:31;;;;;;;9.48;4.60;;;;;;;18.92;93.49;98408.00;4975486;28;20664;-57
2021/07/28 00:26:57;;;;;;;;;;;;;;;19.14;93.39;98458.66;4981879;28;20108;-58
2021/07/28 00:29:23;;;;;;;7.97;4.07;;;;;;;19.16;93.57;98453.19;4976859;28;19913;-57
2021/07/28 00:31:48;;;;;;;9.27;4.90;;;;;;;19.24;93.59;98462.69;4974136;28;20036;-57
2021/07/28 00:34:14;;;;;;;9.52;4.60;;;;;;;19.19;93.33;98450.94;4977490;28;20038;-57
2021/07/28 00:36:39;;;;;;;8.50;5.07;;;;;;;18.85;93.98;98415.09;5004418;28;20030;-57
2021/07/28 00:39:04;;;;;;;11.23;5.28;;;;;;;19.04;94.00;98442.47;4974541;28;20114;-57
2021/07/28 00:41:30;;;;;;;8.23;5.18;;;;;;;19.08;94.57;98442.88;4972054;28;20030;-56
2021/07/28 00:43:55;;;;;;;9.93;5.00;;;;;;;19.07;94.15;98428.06;4969894;28;20026;-57
2021/07/28 00:46:21;;;;;;;8.60;4.90;;;;;;;18.98;94.10;98440.63;4971411;28;20100;-57
2021/07/28 00:48:46;;;;;;;9.00;4.88;;;;;;;19.08;94.03;98477.13;4977390;28;20496;-57
2021/07/28 00:51:12;;;;;;;10.48;5.55;;;;;;;18.85;95.00;98440.63;4956185;28;20030;-58
2021/07/28 00:53:37;;;;;;;7.20;5.13;;;;;;;19.10;95.46;98475.91;5004082;28;20026;-57
2021/07/28 00:56:03;;;;;;;9.18;5.60;;;;;;;19.16;95.37;98461.09;4980315;28;20041;-57
2021/07/28 00:58:29;;;;;;;8.20;5.30;;;;;;;18.98;95.24;98430.91;5006433;28;20038;-59
2021/07/28 01:00:54;;;;;;;10.02;5.35;;;;;;;19.19;95.45;98469.41;4973772;28;20027;-58
2021/07/28 01:03:19;;;;;;;8.93;4.55;;;;;;;18.88;93.52;98433.13;4973692;28;20110;-57
2021/07/28 01:05:45;;;;;;;7.30;4.38;;;;;;;19.01;93.12;98453.41;4978099;28;20030;-57
2021/07/28 01:08:10;;;;;;;9.10;4.22;;;;;;;18.95;93.83;98454.22;4976191;28;20089;-59
2021/07/28 01:10:37;;;;;;;7.47;4.22;;;;;;;19.04;93.65;98452.16;4978157;28;20038;-58
2021/07/28 01:13:04;;;;;;;8.85;5.10;;;;;;;18.91;93.60;98438.00;4990347;28;20029;-58
2021/07/28 01:15:54;;;;;;;8.02;4.60;;;;;;;18.91;93.95;98438.00;4976213;28;20034;-58
2021/07/28 01:18:18;;;;;;;9.95;4.38;;;;;;;18.82;94.12;98439.22;4980828;28;20035;-56
2021/07/28 01:20:46;;;;;;;9.30;5.10;;;;;;;18.91;94.06;98437.16;4977994;28;20085;-58
2021/07/28 01:23:28;;;;;;;9.38;4.85;;;;;;;18.54;94.09;98390.13;4980730;28;20109;-57
2021/07/28 01:25:54;;;;;;;6.65;4.70;;;;;;;18.87;94.73;98439.41;4999695;28;20022;-58
2021/07/28 01:28:21;;;;;;;7.22;4.25;;;;;;;18.86;94.44;98437.78;4996547;28;20018;-57
2021/07/28 01:30:59;;;;;;;8.85;4.72;;;;;;;18.82;94.20;98447.91;4976387;28;20057;-57
2021/07/28 01:33:27;;;;;;;7.50;4.05;;;;;;;18.89;93.91;98444.47;4979345;28;20533;-57
2021/07/28 01:35:53;;;;;;;7.70;4.50;;;;;;;18.82;94.16;98441.84;4971810;28;20798;-57
2021/07/28 01:38:25;;;;;;;8.50;4.95;;;;;;;18.79;94.74;98437.75;4978514;28;20072;-56
2021/07/28 01:40:50;;;;;;;9.05;4.68;;;;;;;18.65;94.85;98399.25;4972379;28;20157;-57
2021/07/28 01:43:16;;;;;;;8.07;4.70;;;;;;;18.81;94.76;98422.59;4982595;28;20022;-57
2021/07/28 01:45:42;;;;;;;6.53;4.03;;;;;;;18.83;94.25;98425.81;4973121;28;20162;-57
2021/07/28 01:48:08;;;;;;;8.93;4.78;;;;;;;18.82;93.86;98424.22;4973862;28;20433;-57
2021/07/28 01:50:34;;;;;;;7.43;4.63;;;;;;;18.92;94.39;98430.91;4977868;28;20046;-57
2021/07/28 01:53:01;;;;;;;7.75;4.30;;;;;;;18.93;94.82;98424.59;4981185;28;20022;-57
2021/07/28 01:55:27;;;;;;;8.02;4.95;;;;;;;18.96;94.98;98424.22;4982477;28;20027;-57
2021/07/28 01:57:53;;;;;;;7.88;4.70;;;;;;;18.91;94.81;98414.28;4980251;28;20030;-57
2021/07/28 02:00:19;;;;;;;7.30;4.55;;;;;;;18.91;93.95;98414.28;4985092;28;20057;-57
2021/07/28 02:02:44;;;;;;;9.20;4.65;;;;;;;19.00;93.78;98417.50;4981231;28;20477;-57
2021/07/28 02:05:10;;;;;;;7.47;4.60;;;;;;;19.01;94.26;98416.50;4981169;28;20080;-58
2021/07/28 02:07:35;;;;;;;9.10;4.88;;;;;;;18.83;94.65;98383.69;4976896;28;20054;-58
2021/07/28 02:10:01;;;;;;;11.00;4.38;;;;;;;18.99;95.00;98406.16;4971365;28;20031;-56
2021/07/28 02:12:26;;;;;;;7.68;4.28;;;;;;;18.93;94.53;98406.16;4984015;28;20496;-58
2021/07/28 02:14:51;;;;;;;7.65;4.40;;;;;;;18.93;94.14;98408.81;4976363;28;20026;-58
2021/07/28 02:17:17;;;;;;;6.85;4.40;;;;;;;18.90;93.98;98399.50;4976593;28;20706;-58
2021/07/28 02:19:42;;;;;;;8.30;4.45;;;;;;;18.88;93.60;98398.88;4976287;28;20575;-59
2021/07/28 02:22:08;;;;;;;8.38;4.28;;;;;;;18.67;92.89;98349.03;4975354;28;20033;-58
2021/07/28 02:24:33;;;;;;;10.52;4.28;;;;;;;18.95;93.63;98397.06;4978560;28;20034;-58
2021/07/28 02:26:59;;;;;;;8.80;4.63;;;;;;;18.99;92.93;98398.25;4976916;28;20030;-59
2021/07/28 02:29:24;;;;;;;6.82;4.35;;;;;;;18.94;93.28;98397.25;4979875;28;20022;-59
2021/07/28 02:31:49;;;;;;;10.25;4.68;;;;;;;18.88;93.49;98401.53;4975793;28;20022;-58
2021/07/28 02:34:15;;;;;;;8.98;4.90;;;;;;;18.54;93.71;98352.47;4969346;28;20561;-57
2021/07/28 02:36:40;;;;;;;8.63;4.47;;;;;;;18.87;93.40;98404.34;4979483;28;20034;-58
2021/07/28 02:39:06;;;;;;;8.90;4.53;;;;;;;18.84;94.34;98402.94;5003787;28;20035;-57
2021/07/28 02:41:31;;;;;;;7.38;4.28;;;;;;;18.82;93.51;98394.44;4973043;28;20545;-58
2021/07/28 02:43:56;;;;;;;8.18;4.85;;;;;;;18.83;94.62;98386.31;4976350;28;20042;-58
2021/07/28 02:46:22;;;;;;;8.75;4.85;;;;;;;18.88;94.75;98390.97;4972038;28;20485;-58
2021/07/28 02:48:48;;;;;;;9.25;4.55;;;;;;;18.87;94.43;98399.09;4976658;28;20065;-57
2021/07/28 02:51:13;;;;;;;8.80;4.50;;;;;;;18.72;95.24;98370.28;4976392;28;20030;-58
2021/07/28 02:53:39;;;;;;;7.85;4.28;;;;;;;18.73;95.05;98366.66;4977955;28;20108;-58
2021/07/28 02:56:04;;;;;;;7.65;4.22;;;;;;;18.88;94.66;98396.25;4979753;28;20033;-58
2021/07/28 02:58:30;;;;;;;8.27;4.55;;;;;;;18.88;93.44;98390.19;4981172;28;20041;-57
2021/07/28 03:00:55;;;;;;;6.40;4.30;;;;;;;18.62;92.05;98347.81;4975996;28;20026;-57
2021/07/28 03:03:21;;;;;;;7.68;4.30;;;;;;;18.86;92.28;98371.13;4978569;28;20100;-58
2021/07/28 03:05:46;;;;;;;9.43;4.38;;;;;;;18.92;92.92;98388.75;4973937;28;20034;-57
2021/07/28 03:08:12;;;;;;;7.05;4.53;;;;;;;18.64;93.97;98344.97;4977938;28;20081;-58
2021/07/28 03:10:37;;;;;;;9.02;4.20;;;;;;;18.73;93.24;98353.50;4979650;28;20033;-57
2021/07/28 03:13:02;;;;;;;8.43;5.35;;;;;;;18.99;94.07;98394.84;4970091;28;20031;-58
2021/07/28 03:15:28;;;;;;;8.50;4.20;;;;;;;18.69;93.60;98352.25;4974624;28;20022;-58
2021/07/28 03:17:53;;;;;;;7.55;4.03;;;;;;;18.94;93.13;98381.44;4980344;28;20581;-57
2021/07/28 03:20:19;;;;;;;8.20;4.55;;;;;;;18.97;93.80;98389.75;4977374;28;20117;-58
2021/07/28 03:22:44;;;;;;;6.68;4.35;;;;;;;19.03;93.81;98380.22;4971539;28;20023;-59
2021/07/28 03:25:10;;;;;;;7.55;4.32;;;;;;;18.90;93.69;98388.94;4980616;28;20053;-57
2021/07/28 03:27:35;;;;;;;7.13;4.40;;;;;;;18.96;94.49;98389.97;4979871;28;20078;-57
2021/07/28 03:30:01;;;;;;;9.15;4.35;;;;;;;18.93;93.20;98364.00;4969083;28;20038;-57
2021/07/28 03:32:26;;;;;;;9.00;4.50;;;;;;;18.99;93.64;98371.13;4974653;28;20474;-56
2021/07/28 03:34:52;;;;;;;7.40;4.28;;;;;;;19.02;93.43;98374.16;4971658;28;20022;-55
2021/07/28 03:37:17;;;;;;;9.77;4.30;;;;;;;19.00;92.81;98370.09;4988411;28;20525;-58
2021/07/28 03:39:42;;;;;;;7.22;4.50;;;;;;;19.03;93.90;98385.50;4973792;28;20035;-57
2021/07/28 03:42:08;;;;;;;9.73;4.65;;;;;;;19.06;94.58;98376.38;4971624;28;20023;-55
2021/07/28 03:44:34;;;;;;;6.88;4.43;;;;;;;19.01;94.80;98369.09;4973712;28;20026;-58
2021/07/28 03:46:59;;;;;;;8.70;4.43;;;;;;;19.01;94.64;98358.53;4973218;28;20038;-57
2021/07/28 03:49:25;;;;;;;7.53;4.22;;;;;;;19.08;93.43;98383.06;4976178;28;20022;-57
2021/07/28 03:51:50;;;;;;;9.90;5.03;;;;;;;19.06;94.33;98376.38;4981630;28;20062;-58
2021/07/28 03:54:15;;;;;;;8.65;4.50;;;;;;;19.06;94.53;98371.91;4975205;28;20226;-57
2021/07/28 03:56:41;;;;;;;10.63;4.90;;;;;;;19.13;94.44;98356.06;4980835;28;20034;-58
2021/07/28 03:59:06;;;;;;;8.32;4.38;;;;;;;19.13;94.51;98361.34;4976506;28;20555;-57
2021/07/28 04:01:31;;;;;;;9.30;4.75;;;;;;;19.15;94.51;98369.88;4971565;28;20026;-56
2021/07/28 04:03:57;;;;;;;9.63;4.97;;;;;;;19.06;94.80;98376.38;4974261;28;20740;-57
2021/07/28 04:06:22;;;;;;;9.10;5.00;;;;;;;19.05;95.10;98351.84;4971656;28;20392;-57
2021/07/28 04:08:47;;;;;;;7.65;4.82;;;;;;;19.04;95.31;98378.41;4969445;28;20121;-58
2021/07/28 04:11:13;;;;;;;10.32;4.72;;;;;;;18.93;95.48;98364.00;4984711;28;20037;-58
2021/07/28 04:13:39;;;;;;;9.60;5.07;;;;;;;19.17;94.94;98371.28;4976192;28;20494;-58
2021/07/28 04:16:04;;;;;;;11.90;5.53;;;;;;;19.13;95.03;98367.44;4975991;28;20042;-58
2021/07/28 04:18:30;;;;;;;10.07;5.03;;;;;;;19.13;95.54;98362.19;4973359;28;20015;-58
2021/07/28 04:20:55;;;;;;;10.40;4.90;;;;;;;19.19;94.45;98361.34;4978290;28;20022;-57
2021/07/28 04:23:21;;;;;;;8.88;4.85;;;;;;;18.82;95.01;98344.41;4969028;28;20019;-58
2021/07/28 04:25:46;;;;;;;9.32;4.85;;;;;;;19.00;94.91;98365.66;4976241;28;20030;-57
2021/07/28 04:28:12;;;;;;;8.50;5.00;;;;;;;19.02;95.99;98362.81;4973946;28;20022;-58
2021/07/28 04:30:37;;;;;;;8.15;5.28;;;;;;;19.05;95.97;98361.59;4975727;28;20026;-58
2021/07/28 04:33:02;;;;;;;9.05;5.32;;;;;;;19.00;96.03;98362.19;4974668;28;20026;-58
2021/07/28 04:35:28;;;;;;;9.27;5.45;;;;;;;19.02;96.40;98362.81;4975895;28;20104;-58
2021/07/28 04:37:53;;;;;;;9.95;5.60;;;;;;;19.10;96.26;98364.41;4975137;28;20026;-60
2021/07/28 04:40:18;;;;;;;11.45;6.00;;;;;;;19.09;95.93;98365.41;4974297;28;20478;-58
2021/07/28 04:42:44;;;;;;;9.65;5.90;;;;;;;19.06;95.85;98357.94;5013475;28;20374;-57
2021/07/28 04:45:10;;;;;;;13.82;5.97;;;;;;;19.12;95.62;98372.91;4981053;28;20046;-56
2021/07/28 04:47:35;;;;;;;14.18;6.55;;;;;;;19.12;95.67;98376.34;4976096;28;20065;-58
2021/07/28 04:50:00;;;;;;;9.88;5.97;;;;;;;19.20;95.47;98372.69;4979241;28;20037;-56
2021/07/28 04:52:26;;;;;;;10.18;6.13;;;;;;;19.16;95.21;98366.22;4977259;28;20043;-58
2021/07/28 04:54:52;;;;;;;10.63;6.60;;;;;;;19.13;94.84;98369.25;4982591;28;20027;-57
2021/07/28 04:57:18;;;;;;;11.60;6.93;;;;;;;19.17;94.52;98373.13;4984029;28;20034;-58
2021/07/28 04:59:44;;;;;;;11.30;6.90;;;;;;;19.10;95.07;98362.59;4980284;28;20110;-57
2021/07/28 05:02:09;;;;;;;10.98;7.05;;;;;;;18.90;95.29;98331.00;4983620;28;20030;-58
2021/07/28 05:04:34;;;;;;;9.27;6.60;;;;;;;19.19;94.71;98381.63;4979933;28;20035;-57
2021/07/28 05:07:00;;;;;;;10.27;6.97;;;;;;;19.17;95.09;98383.66;4977751;28;20034;-57
2021/07/28 05:09:25;;;;;;;10.45;6.68;;;;;;;19.22;95.06;98378.59;4982756;28;20117;-58
2021/07/28 05:11:51;;;;;;;9.95;6.22;;;;;;;19.06;95.09;98353.47;4978592;28;20080;-58
2021/07/28 05:14:16;;;;;;;8.63;6.20;;;;;;;19.23;94.96;98380.19;4984776;28;20480;-58
2021/07/28 05:16:41;;;;;;;10.48;6.60;;;;;;;19.14;94.51;98384.06;4979567;28;20049;-57
2021/07/28 05:19:07;;;;;;;10.82;6.60;;;;;;;19.29;93.89;98391.72;4982170;28;20046;-58
2021/07/28 05:21:32;;;;;;;10.05;6.55;;;;;;;19.28;93.98;98395.41;4971715;28;20060;-58
2021/07/28 05:23:58;;;;;;;11.13;6.80;;;;;;;19.19;94.17;98384.25;4978673;28;20018;-58
2021/07/28 05:26:23;;;;;;;9.68;7.38;;;;;;;19.25;94.09;98388.69;4979226;28;20057;-58
2021/07/28 05:28:49;;;;;;;11.07;6.85;;;;;;;19.26;94.65;98398.25;4978874;28;20038;-57
2021/07/28 05:31:15;;;;;;;13.45;7.07;;;;;;;19.25;94.14;98403.72;4978328;28;20027;-58
2021/07/28 05:33:41;;;;;;;14.60;7.07;;;;;;;19.22;94.13;98410.22;4977244;28;20029;-57
2021/07/28 05:36:07;;;;;;;10.90;7.85;;;;;;;19.18;93.72;98398.44;4982684;28;20056;-58
2021/07/28 05:38:33;;;;;;;11.82;8.23;;;;;;;19.30;94.12;98404.72;4976704;28;20461;-56
2021/07/28 05:40:58;;;;;;;10.48;8.25;;;;;;;19.27;94.64;98415.66;4979884;28;20193;-57
2021/07/28 05:43:24;;;;;;;12.63;8.05;;;;;;;19.20;95.01;98401.69;4975140;28;20540;-57
2021/07/28 05:45:51;;;;;;;13.35;7.75;;;;;;;19.36;94.44;98401.25;4984303;28;20174;-58
2021/07/28 05:48:16;;;;;;;12.70;7.57;;;;;;;19.38;94.59;98399.25;4973694;28;20109;-58
2021/07/28 05:50:42;;;;;;;11.23;8.20;;;;;;;19.33;94.98;98399.03;4992208;28;20212;-56
2021/07/28 05:53:07;;;;;;;10.90;7.20;;;;;;;19.36;95.11;98395.16;4976379;28;20267;-57
2021/07/28 05:55:33;;;;;;;11.20;7.45;;;;;;;19.49;94.54;98408.31;4978214;28;20061;-58
2021/07/28 05:57:59;;;;;;;12.50;7.30;;;;;;;19.46;94.70;98400.84;4982851;28;20034;-57
2021/07/28 06:00:25;;;;;;;13.02;7.43;;;;;;;19.50;94.72;98403.88;4972921;28;20034;-58
2021/07/28 06:02:50;;;;;;;12.30;7.32;;;;;;;19.50;94.68;98395.97;4979747;28;20018;-57
2021/07/28 06:05:17;;;;;;;10.02;7.28;;;;;;;19.50;94.44;98409.13;4973422;28;20109;-57
2021/07/28 06:07:42;;;;;;;10.13;7.18;;;;;;;19.39;94.44;98395.56;4975478;28;20386;-57
2021/07/28 06:10:08;;;;;;;9.98;6.82;;;;;;;19.44;93.78;98388.84;4975474;28;20038;-57
2021/07/28 06:12:33;;;;;;;13.05;7.15;;;;;;;19.55;94.13;98415.41;4970228;28;20027;-57
2021/07/28 06:14:58;;;;;;;9.43;7.20;;;;;;;19.55;93.73;98411.97;4983697;28;20031;-58
2021/07/28 06:17:24;;;;;;;14.43;8.10;;;;;;;19.46;94.33;98392.91;4971483;28;20481;-58
2021/07/28 06:19:49;;;;;;;12.93;7.60;;;;;;;19.15;93.90;98364.63;4978552;28;20034;-57
2021/07/28 06:22:15;;;;;;;10.73;8.00;;;;;;;19.39;93.68;98400.03;4973285;28;20259;-57
2021/07/28 06:24:40;;;;;;;9.02;6.22;;;;;;;19.38;93.62;98395.78;4968846;28;20686;-57
2021/07/28 06:27:05;;;;;;;12.77;6.22;;;;;;;19.13;93.63;98351.63;4979493;28;20022;-57
2021/07/28 06:29:31;;;;;;;12.98;7.38;;;;;;;19.50;94.49;98399.41;4967559;28;20027;-57
2021/07/28 06:31:56;;;;;;;10.05;6.55;;;;;;;19.46;94.53;98371.00;4982694;28;20636;-57
2021/07/28 06:34:22;;;;;;;11.57;7.03;;;;;;;19.57;94.26;98373.00;4973732;28;20128;-58
2021/07/28 06:36:47;;;;;;;11.15;6.53;;;;;;;19.58;93.40;98370.13;4975885;28;20038;-56
2021/07/28 06:39:13;;;;;;;11.23;6.60;;;;;;;19.35;94.38;98325.81;4974966;28;20121;-57
2021/07/28 06:41:38;;;;;;;13.07;6.95;;;;;;;19.64;94.09;98362.41;4976265;28;20117;-57
2021/07/28 06:44:04;;;;;;;13.15;7.15;;;;;;;19.57;93.04;98362.47;4982470;28;20018;-57
2021/07/28 06:46:29;;;;;;;13.57;7.00;;;;;;;19.46;93.52;98371.84;4975335;28;20050;-58
2021/07/28 06:48:55;;;;;;;11.15;6.13;;;;;;;19.48;92.38;98372.44;4979005;28;20034;-57
2021/07/28 06:51:20;;;;;;;10.93;5.78;;;;;;;19.06;91.82;98313.16;4975561;28;20059;-57
2021/07/28 06:53:46;;;;;;;14.98;6.32;;;;;;;19.42;91.21;98351.34;4974476;28;20377;-57
2021/07/28 06:56:13;;;;;;;10.07;5.63;;;;;;;19.38;90.88;98364.13;4975083;28;20379;-57
2021/07/28 06:58:39;;;;;;;10.18;5.47;;;;;;;19.39;90.60;98360.50;4978232;28;20023;-58
2021/07/28 07:01:06;;;;;;;9.55;5.70;;;;;;;19.36;90.41;98353.00;4977085;28;20022;-57
2021/07/28 07:03:32;;;;;;;8.85;5.50;;;;;;;19.42;90.17;98341.59;4982215;28;20045;-57
2021/07/28 07:05:57;;;;;;;9.07;4.97;;;;;;;18.98;90.42;98286.00;4975768;28;20743;-57
2021/07/28 07:08:22;;;;;;;12.38;5.32;;;;;;;19.04;90.35;98289.63;4973917;28;20030;-58
2021/07/28 07:10:48;;;;;;;9.02;5.10;;;;;;;19.40;90.00;98341.84;4972455;28;20025;-57
2021/07/28 07:13:13;;;;;;;9.50;5.20;;;;;;;19.29;90.25;98333.75;4977796;28;20028;-58
2021/07/28 07:15:38;;;;;;;11.98;5.90;;;;;;;19.35;90.69;98336.38;4973372;28;20062;-57
2021/07/28 07:18:04;;;;;;;11.88;5.78;;;;;;;19.03;91.88;98303.81;4978881;28;20026;-57
2021/07/28 07:20:29;;;;;;;10.60;5.60;;;;;;;19.34;92.71;98360.31;4972132;28;20027;-59
2021/07/28 07:22:55;;;;;;;10.82;5.90;;;;;;;19.32;92.75;98388.69;4968951;28;20105;-57
2021/07/28 07:25:20;;;;;;;10.15;5.40;;;;;;;19.21;92.62;98413.84;4978173;28;20613;-57
2021/07/28 07:27:45;;;;;;;8.70;4.80;;;;;;;19.40;88.19;98431.47;4978467;28;20088;-57
2021/07/28 07:30:11;;;;;;;5.45;3.13;;;;;;;19.42;85.20;98422.53;4975970;28;20057;-57
2021/07/28 07:32:36;;;;;;;5.82;2.47;;;;;;;19.15;83.63;98385.69;4972738;28;20022;-57
2021/07/28 07:35:02;;;;;;;6.07;2.83;;;;;;;19.51;85.02;98451.13;4970644;28;20025;-57
2021/07/28 07:37:28;;;;;;;6.82;3.10;;;;;;;19.34;87.11;98482.34;4970606;28;20642;-58
2021/07/28 07:39:53;;;;;;;3.90;1.20;;;;;;;18.76;88.48;98476.84;4969699;28;20057;-57
2021/07/28 07:42:19;;;;;;;3.88;0.90;;;;;;;18.39;89.33;98502.69;4977137;28;20409;-57
2021/07/28 07:44:45;;;;;;;3.70;0.90;;;;;;;17.84;89.93;98465.81;4968476;28;20037;-59
2021/07/28 07:47:11;;;;;;;2.50;0.90;;;;;;;17.72;88.27;98422.66;4970758;28;20018;-59
2021/07/28 07:49:37;;;;;;;3.60;1.33;;;;;;;17.90;89.03;98433.50;4976476;28;20035;-59
2021/07/28 07:52:02;;;;;;;4.50;2.08;;;;;;;18.20;91.70;98472.69;4979297;28;20033;-59
2021/07/28 07:54:28;;;;;;;5.80;2.78;;;;;;;18.13;93.65;98459.50;4969914;28;20429;-58
2021/07/28 07:56:53;;;;;;;6.78;2.53;;;;;;;18.04;93.23;98458.84;4974446;28;20030;-58
2021/07/28 07:59:19;;;;;;;6.07;2.55;;;;;;;18.03;93.50;98457.25;4976571;28;20023;-59
2021/07/28 08:01:45;;;;;;;7.03;2.50;;;;;;;18.11;92.64;98471.19;4978060;28;20041;-58
2021/07/28 08:04:10;;;;;;;4.40;2.20;;;;;;;18.17;93.23;98488.84;4979351;28;20562;-59
2021/07/28 08:06:35;;;;;;;4.82;2.00;;;;;;;18.03;92.68;98478.28;4969234;28;20027;-59
2021/07/28 08:09:01;;;;;;;4.85;1.70;;;;;;;18.02;91.92;98471.38;4976548;28;20111;-58
2021/07/28 08:11:27;;;;;;;7.88;1.75;;;;;;;18.17;90.14;98462.53;4979770;28;20279;-60
2021/07/28 08:13:52;;;;;;;4.35;1.90;;;;;;;18.16;90.21;98469.63;4974365;28;20038;-61
2021/07/28 08:16:19;;;;;;;5.70;2.20;;;;;;;17.90;89.09;98425.59;4983119;28;20789;-61
2021/07/28 08:18:46;;;;;;;5.30;2.55;;;;;;;17.81;90.45;98429.38;4982661;28;20023;-60
2021/07/28 08:21:12;;;;;;;8.32;4.00;;;;;;;17.70;90.92;98427.31;4989709;28;20061;-60
2021/07/28 08:23:39;;;;;;;7.40;4.15;;;;;;;17.94;91.18;98494.41;4974583;28;20117;-60
2021/07/28 08:26:04;;;;;;;8.48;3.63;;;;;;;17.92;91.77;98491.97;4977195;28;20263;-61
2021/07/28 08:28:30;;;;;;;6.75;3.67;;;;;;;17.91;90.51;98490.38;5007726;28;20060;-60
2021/07/28 08:30:55;;;;;;;8.48;4.35;;;;;;;17.88;91.82;98489.94;4982960;28;20070;-60
2021/07/28 08:33:25;;;;;;;7.32;3.72;;;;;;;17.93;92.43;98485.72;4976059;28;20114;-60
2021/07/28 08:35:51;;;;;;;6.40;3.45;;;;;;;17.90;92.22;98493.19;4977519;28;20030;-60
2021/07/28 08:38:20;;;;;;;5.88;3.60;;;;;;;17.98;91.51;98490.38;4990044;28;20593;-61
2021/07/28 08:40:48;;;;;;;5.80;3.05;;;;;;;17.92;90.48;98460.41;4983541;28;20038;-60
2021/07/28 08:43:14;;;;;;;6.25;3.90;;;;;;;18.03;90.65;98469.56;4976333;28;20145;-60
2021/07/28 08:45:39;;;;;;;6.07;3.22;;;;;;;18.11;91.69;98473.84;4971548;28;20502;-61
2021/07/28 08:48:05;;;;;;;6.00;3.30;;;;;;;18.18;92.20;98477.31;5009284;28;20093;-59
2021/07/28 08:50:30;;;;;;;5.97;3.05;;;;;;;18.26;89.02;98469.25;5003970;28;20023;-60
2021/07/28 08:52:56;;;;;;;8.10;3.35;;;;;;;18.17;88.92;98457.28;4979740;28;20027;-60
2021/07/28 08:55:22;;;;;;;13.80;3.70;;;;;;;18.25;89.73;98483.41;4979407;28;20620;-60
2021/07/28 08:57:48;;;;;;;9.07;3.00;;;;;;;18.29;89.47;98478.56;4969787;28;20396;-61
2021/07/28 09:00:13;;;;;;;6.28;2.83;;;;;;;18.34;89.77;98474.31;4977771;28;20027;-59
2021/07/28 09:02:39;;;;;;;5.32;2.85;;;;;;;18.17;89.75;98462.53;4979108;28;20042;-60
2021/07/28 09:05:05;;;;;;;6.07;2.67;;;;;;;18.18;90.56;98470.25;4977282;28;20658;-59
2021/07/28 09:07:37;;;;;;;4.57;2.50;;;;;;;18.13;89.53;98475.28;4974474;28;20637;-59
2021/07/28 09:10:03;;;;;;;4.70;2.40;;;;;;;18.17;89.54;98484.41;4974405;28;20038;-59
2021/07/28 09:12:33;;;;;;;6.20;2.67;;;;;;;18.16;90.72;98472.25;4978009;28;20034;-58
2021/07/28 09:15:03;;;;;;;5.00;2.30;;;;;;;17.93;90.29;98441.00;4970104;28;20023;-59
2021/07/28 09:17:30;;;;;;;4.57;2.40;;;;;;;18.09;89.47;98442.47;4978912;28;20038;-60
2021/07/28 09:19:57;;;;;;;4.93;2.03;;;;;;;18.14;88.31;98431.34;4981711;28;20022;-59
2021/07/28 09:22:23;;;;;;;5.25;1.80;;;;;;;18.53;87.71;98480.66;4973850;28;20480;-58
2021/07/28 09:25:14;;;;;;;5.25;1.70;;;;;;;18.34;87.67;98423.50;5011911;28;20385;-59
2021/07/28 09:27:42;;;;;;;3.45;1.50;;;;;;;18.85;83.09;98473.03;4981732;28;20101;-59
2021/07/28 09:30:14;;;;;;;3.60;1.50;;;;;;;19.03;84.75;98469.81;4976163;28;20032;-59
2021/07/28 09:32:59;;;;;;;5.00;1.90;;;;;;;19.02;85.62;98465.56;4978840;28;20023;-59
2021/07/28 09:35:52;;;;;;;4.93;2.33;;;;;;;19.06;86.61;98469.41;4973711;28;20552;-59
2021/07/28 09:38:37;;;;;;;6.10;2.72;;;;;;;18.90;89.30;98478.53;4971248;28;20055;-59
2021/07/28 09:41:12;;;;;;;5.10;2.78;;;;;;;18.81;89.03;98471.81;4975823;28;20022;-59
2021/07/28 09:43:44;;;;;;;6.13;3.00;;;;;;;18.75;88.58;98469.97;4978631;28;20109;-59
2021/07/28 09:46:21;;;;;;;5.97;2.60;;;;;;;18.55;87.67;98430.44;4975269;28;20027;-59
2021/07/28 09:48:46;;;;;;;5.50;2.83;;;;;;;18.98;88.38;98480.13;4981276;28;20056;-59
2021/07/28 09:51:32;;;;;;;5.88;2.67;;;;;;;19.00;88.06;98484.22;4975733;28;20021;-59
2021/07/28 09:54:02;;;;;;;6.80;3.70;;;;;;;19.08;90.11;98470.03;4969139;28;20026;-60
2021/07/28 09:56:31;;;;;;;6.45;3.50;;;;;;;19.13;88.34;98486.03;4969976;28;20022;-58
2021/07/28 09:58:58;;;;;;;6.40;3.30;;;;;;;19.01;87.94;98488.44;4971398;28;20073;-59
2021/07/28 10:01:28;;;;;;;6.63;4.15;;;;;;;18.57;88.99;98439.75;4977197;28;20038;-59
2021/07/28 10:03:54;;;;;;;6.47;3.78;;;;;;;18.55;89.55;98436.50;4998245;28;20038;-59
2021/07/28 10:06:22;;;;;;;6.22;3.42;;;;;;;18.75;88.81;98477.88;4980464;28;20104;-59
2021/07/28 10:08:50;;;;;;;6.80;3.40;;;;;;;18.81;89.20;98496.34;4981711;28;20453;-59
2021/07/28 10:11:15;;;;;;;6.88;4.55;;;;;;;18.72;89.38;98479.06;4979264;28;20571;-57
2021/07/28 10:13:42;;;;;;;7.32;3.60;;;;;;;18.66;89.24;98456.19;4972239;28;20037;-59
2021/07/28 10:16:07;;;;;;;9.68;4.15;;;;;;;18.77;89.71;98478.47;4982619;28;20049;-59
2021/07/28 10:18:33;;;;;;;5.47;3.53;;;;;;;18.79;89.14;98472.00;5004029;28;20026;-59
2021/07/28 10:20:59;;;;;;;5.70;3.17;;;;;;;18.87;88.89;98478.91;4977671;28;20151;-58
2021/07/28 10:23:25;;;;;;;6.60;3.40;;;;;;;18.98;88.84;98485.41;4977013;28;20030;-59
2021/07/28 10:25:50;;;;;;;8.20;3.80;;;;;;;18.66;88.99;98439.59;4978976;28;20035;-59
2021/07/28 10:28:17;;;;;;;6.43;3.17;;;;;;;18.84;88.72;98487.25;4977645;28;20037;-60
2021/07/28 10:30:45;;;;;;;6.03;3.22;;;;;;;18.53;89.56;98441.19;4992224;28;20122;-59
2021/07/28 10:33:24;;;;;;;6.18;2.88;;;;;;;18.73;88.42;98469.38;4971910;28;20027;-58
2021/07/28 10:35:50;;;;;;;5.10;2.72;;;;;;;18.78;88.96;98459.03;5002204;28;20062;-59
2021/07/28 10:38:20;;;;;;;4.65;2.38;;;;;;;18.82;88.68;98437.38;4971555;28;20103;-58
2021/07/28 10:40:58;;;;;;;5.53;2.65;;;;;;;18.87;89.08;98428.88;4974052;28;20081;-59
2021/07/28 10:43:24;;;;;;;5.45;2.72;;;;;;;18.89;89.90;98431.31;4974920;28;20030;-59
2021/07/28 10:45:57;;;;;;;6.15;3.30;;;;;;;18.65;89.85;98396.63;4978688;28;20026;-59
2021/07/28 10:48:52;;;;;;;5.97;2.80;;;;;;;18.86;89.76;98418.56;4980305;28;20041;-59
2021/07/28 10:51:49;;;;;;;10.52;4.45;;;;;;;18.86;90.03;98426.47;4974128;28;20039;-59
2021/07/28 10:54:15;;;;;;;5.50;3.00;;;;;;;18.84;89.33;98424.03;4971364;28;20030;-59
2021/07/28 10:57:31;;;;;;;8.43;4.20;;;;;;;18.81;89.58;98411.25;4975594;28;20040;-59
2021/07/28 10:59:56;;;;;;;5.85;3.17;;;;;;;18.91;89.14;98410.81;4961434;28;20035;-59
2021/07/28 11:02:22;;;;;;;7.18;3.17;;;;;;;18.97;89.35;98400.28;4974876;28;20196;-59
2021/07/28 11:05:20;;;;;;;4.95;2.50;;;;;;;19.04;87.79;98379.22;4971734;28;20031;-59
2021/07/28 11:10:41;;;;;;;6.82;3.05;;;;;;;18.99;89.11;98385.09;4969536;28;20030;-59
2021/07/28 11:13:17;;;;;;;5.55;2.95;;;;;;;18.94;88.69;98399.91;4979234;28;20385;-59
2021/07/28 11:15:59;;;;;;;6.03;3.30;;;;;;;19.01;89.16;98405.97;4977780;28;20027;-59
2021/07/28 11:18:48;;;;;;;6.03;2.75;;;;;;;18.97;89.69;98415.31;4974293;28;20060;-59
2021/07/28 11:21:26;;;;;;;7.53;4.00;;;;;;;18.77;89.65;98387.09;4973886;28;20027;-59
2021/07/28 11:24:00;;;;;;;6.47;3.38;;;;;;;19.10;90.21;98417.13;4976479;28;20041;-58
2021/07/28 11:26:31;;;;;;;5.88;3.00;;;;;;;19.08;89.23;98406.78;4975634;28;20038;-58
2021/07/28 11:29:02;;;;;;;6.32;2.92;;;;;;;19.34;88.65;98418.28;5000426;28;20034;-58
2021/07/28 11:31:31;;;;;;;6.55;3.00;;;;;;;19.47;89.07;98412.19;4972632;28;20023;-59
2021/07/28 11:34:07;;;;;;;6.82;3.00;;;;;;;19.33;88.48;98366.56;4972805;28;20465;-58
2021/07/28 11:36:34;;;;;;;4.82;2.80;;;;;;;19.51;87.28;98390.47;4973248;28;20584;-59
2021/07/28 11:39:06;;;;;;;6.38;3.10;;;;;;;19.64;87.28;98387.00;4973764;28;20026;-59